Royton, United Kingdom
Current Conditions -  °F | °C
As of 6:20 AM on Friday 19 Dec 2014 (Local Time) from EGCC Reporting Station
Broken Clouds Broken Clouds  
Wind Chill: 35°   Ceiling: 2700
Heat Index: 43°   Visibility: 6mi
Dew Point: 37°   Wind: 15mph
Humidity: 81%   Direction: 260°W
Pressure: 29.77"   Gusts: NA
Location:  53.57°N, 2.12°W
Report Text: EGCC 190620Z 26013KT 9999 BKN027 BKN033 06/03 Q1008 NOSIG
Loading
Personal Weather Stations






























Interactive Weather Map New forecast layout! Learn more

10-Day Weather Forecast

Advertisements
Track Severe Weather on mobile